sensor_id;sensor_type;location;lat;lon;timestamp;pressure;altitude;pressure_sealevel;temperature;humidity
40872;BME280;26591;43.264;26.940;2022-12-13T00:00:11;98355.47;;;2.91;80.67
40872;BME280;26591;43.264;26.940;2022-12-13T00:02:42;98362.53;;;3.20;80.50
40872;BME280;26591;43.264;26.940;2022-12-13T00:05:08;98362.41;;;3.41;79.68
40872;BME280;26591;43.264;26.940;2022-12-13T00:07:34;98368.19;;;3.15;79.23
40872;BME280;26591;43.264;26.940;2022-12-13T00:10:00;98377.56;;;3.28;78.77
40872;BME280;26591;43.264;26.940;2022-12-13T00:12:25;98366.47;;;2.85;79.13
40872;BME280;26591;43.264;26.940;2022-12-13T00:14:51;98357.25;;;2.81;80.05
40872;BME280;26591;43.264;26.940;2022-12-13T00:17:16;98363.19;;;2.52;80.43
40872;BME280;26591;43.264;26.940;2022-12-13T00:19:42;98368.38;;;2.42;80.67
40872;BME280;26591;43.264;26.940;2022-12-13T00:22:07;98380.25;;;2.25;81.57
40872;BME280;26591;43.264;26.940;2022-12-13T00:24:33;98389.63;;;2.06;81.75
40872;BME280;26591;43.264;26.940;2022-12-13T00:26:58;98384.63;;;2.24;81.90
40872;BME280;26591;43.264;26.940;2022-12-13T00:29:24;98393.50;;;2.12;81.84
40872;BME280;26591;43.264;26.940;2022-12-13T00:31:50;98390.25;;;2.20;81.83
40872;BME280;26591;43.264;26.940;2022-12-13T00:34:15;98391.41;;;2.06;81.75
40872;BME280;26591;43.264;26.940;2022-12-13T00:36:41;98383.94;;;1.80;82.64
40872;BME280;26591;43.264;26.940;2022-12-13T00:39:06;98377.38;;;1.64;83.90
40872;BME280;26591;43.264;26.940;2022-12-13T00:41:34;98386.66;;;1.57;84.24
40872;BME280;26591;43.264;26.940;2022-12-13T00:44:01;98395.59;;;1.43;84.48
40872;BME280;26591;43.264;26.940;2022-12-13T00:46:28;98390.97;;;1.47;84.18
40872;BME280;26591;43.264;26.940;2022-12-13T00:48:56;98397.16;;;1.34;84.56
40872;BME280;26591;43.264;26.940;2022-12-13T00:51:23;98387.38;;;1.15;84.54
40872;BME280;26591;43.264;26.940;2022-12-13T00:53:49;98398.38;;;1.19;84.03
40872;BME280;26591;43.264;26.940;2022-12-13T00:56:17;98399.41;;;1.28;84.70
40872;BME280;26591;43.264;26.940;2022-12-13T00:58:48;98403.06;;;1.36;84.00
40872;BME280;26591;43.264;26.940;2022-12-13T01:01:15;98403.25;;;1.56;83.66
40872;BME280;26591;43.264;26.940;2022-12-13T01:03:43;98410.00;;;1.59;83.52
40872;BME280;26591;43.264;26.940;2022-12-13T01:08:35;98405.44;;;1.40;83.89
40872;BME280;26591;43.264;26.940;2022-12-13T01:11:02;98395.97;;;1.39;83.40
40872;BME280;26591;43.264;26.940;2022-12-13T01:13:28;98411.66;;;1.60;83.51
40872;BME280;26591;43.264;26.940;2022-12-13T01:15:53;98410.94;;;1.90;83.00
40872;BME280;26591;43.264;26.940;2022-12-13T01:18:19;98399.78;;;1.67;83.29
40872;BME280;26591;43.264;26.940;2022-12-13T01:23:30;98402.47;;;1.44;83.05
40872;BME280;26591;43.264;26.940;2022-12-13T01:25:55;98400.44;;;1.80;83.28
40872;BME280;26591;43.264;26.940;2022-12-13T01:28:22;98403.00;;;2.13;82.08
40872;BME280;26591;43.264;26.940;2022-12-13T01:30:55;98387.88;;;2.17;81.66
40872;BME280;26591;43.264;26.940;2022-12-13T01:33:21;98379.50;;;1.92;81.10
40872;BME280;26591;43.264;26.940;2022-12-13T01:35:50;98388.44;;;1.78;81.50
40872;BME280;26591;43.264;26.940;2022-12-13T01:38:16;98392.09;;;2.08;81.14
40872;BME280;26591;43.264;26.940;2022-12-13T01:40:47;98387.38;;;1.80;81.35
40872;BME280;26591;43.264;26.940;2022-12-13T01:43:15;98383.94;;;1.80;80.95
40872;BME280;26591;43.264;26.940;2022-12-13T01:45:41;98364.34;;;1.86;80.31
40872;BME280;26591;43.264;26.940;2022-12-13T01:48:16;98365.03;;;1.66;79.72
40872;BME280;26591;43.264;26.940;2022-12-13T01:50:47;98374.06;;;1.30;78.89
40872;BME280;26591;43.264;26.940;2022-12-13T01:53:18;98376.72;;;1.51;77.78
40872;BME280;26591;43.264;26.940;2022-12-13T01:55:49;98366.84;;;1.22;76.50
40872;BME280;26591;43.264;26.940;2022-12-13T01:58:16;98359.22;;;1.09;75.83
40872;BME280;26591;43.264;26.940;2022-12-13T02:00:42;98366.31;;;0.96;76.50
40872;BME280;26591;43.264;26.940;2022-12-13T02:03:08;98357.06;;;1.03;76.20
40872;BME280;26591;43.264;26.940;2022-12-13T02:08:15;98384.44;;;1.09;76.83
40872;BME280;26591;43.264;26.940;2022-12-13T02:10:42;98392.91;;;1.22;76.60
40872;BME280;26591;43.264;26.940;2022-12-13T02:13:08;98394.53;;;1.46;76.62
40872;BME280;26591;43.264;26.940;2022-12-13T02:18:25;98402.34;;;1.46;76.58
40872;BME280;26591;43.264;26.940;2022-12-13T02:20:59;98403.97;;;1.03;76.27
40872;BME280;26591;43.264;26.940;2022-12-13T02:34:13;98404.13;;;0.67;76.11
40872;BME280;26591;43.264;26.940;2022-12-13T02:40:09;98407.09;;;0.63;76.41
40872;BME280;26591;43.264;26.940;2022-12-13T02:45:14;98400.09;;;0.29;77.61
40872;BME280;26591;43.264;26.940;2022-12-13T02:47:42;98400.78;;;0.20;77.78
40872;BME280;26591;43.264;26.940;2022-12-13T02:50:09;98402.78;;;0.16;76.93
40872;BME280;26591;43.264;26.940;2022-12-13T02:52:37;98407.78;;;0.30;77.34
40872;BME280;26591;43.264;26.940;2022-12-13T02:55:07;98407.97;;;0.05;77.67
40872;BME280;26591;43.264;26.940;2022-12-13T02:57:35;98417.81;;;0.12;76.40
40872;BME280;26591;43.264;26.940;2022-12-13T03:00:22;98412.47;;;0.14;76.22
40872;BME280;26591;43.264;26.940;2022-12-13T03:08:22;98415.31;;;0.11;76.97
40872;BME280;26591;43.264;26.940;2022-12-13T03:13:25;98405.25;;;0.06;77.64
40872;BME280;26591;43.264;26.940;2022-12-13T03:16:10;98414.22;;;0.02;78.14
40872;BME280;26591;43.264;26.940;2022-12-13T03:18:38;98406.97;;;-0.06;77.88
40872;BME280;26591;43.264;26.940;2022-12-13T03:21:07;98423.44;;;-0.05;77.34
40872;BME280;26591;43.264;26.940;2022-12-13T03:23:36;98417.66;;;0.03;76.76
40872;BME280;26591;43.264;26.940;2022-12-13T03:26:06;98432.53;;;-0.11;76.53
40872;BME280;26591;43.264;26.940;2022-12-13T03:28:33;98433.28;;;0.03;75.82
40872;BME280;26591;43.264;26.940;2022-12-13T03:30:59;98436.88;;;0.24;75.76
40872;BME280;26591;43.264;26.940;2022-12-13T03:33:24;98446.69;;;0.32;75.58
40872;BME280;26591;43.264;26.940;2022-12-13T03:35:50;98448.66;;;0.06;76.08
40872;BME280;26591;43.264;26.940;2022-12-13T03:38:16;98443.72;;;0.14;75.91
40872;BME280;26591;43.264;26.940;2022-12-13T03:40:43;98449.06;;;0.24;74.52
40872;BME280;26591;43.264;26.940;2022-12-13T03:43:09;98455.00;;;-0.10;73.73
40872;BME280;26591;43.264;26.940;2022-12-13T03:45:34;98451.31;;;-0.19;73.23
40872;BME280;26591;43.264;26.940;2022-12-13T03:48:00;98465.84;;;-0.16;72.88
40872;BME280;26591;43.264;26.940;2022-12-13T03:50:25;98465.47;;;-0.23;72.34
40872;BME280;26591;43.264;26.940;2022-12-13T03:52:59;98462.13;;;-0.25;72.00
40872;BME280;26591;43.264;26.940;2022-12-13T03:55:26;98464.22;;;-0.06;71.75
40872;BME280;26591;43.264;26.940;2022-12-13T03:57:52;98462.91;;;-0.11;72.13
40872;BME280;26591;43.264;26.940;2022-12-13T04:00:18;98454.50;;;-0.15;71.84
40872;BME280;26591;43.264;26.940;2022-12-13T04:02:43;98450.13;;;-0.63;71.88
40872;BME280;26591;43.264;26.940;2022-12-13T04:05:09;98449.38;;;-0.52;71.56
40872;BME280;26591;43.264;26.940;2022-12-13T04:07:34;98444.09;;;-0.64;71.87
40872;BME280;26591;43.264;26.940;2022-12-13T04:10:01;98445.66;;;-0.61;70.85
40872;BME280;26591;43.264;26.940;2022-12-13T04:12:26;98441.56;;;-0.77;71.31
40872;BME280;26591;43.264;26.940;2022-12-13T04:15:10;98435.03;;;-0.82;70.63
40872;BME280;26591;43.264;26.940;2022-12-13T04:17:36;98435.66;;;-0.92;71.60
40872;BME280;26591;43.264;26.940;2022-12-13T04:20:01;98434.84;;;-0.92;71.61
40872;BME280;26591;43.264;26.940;2022-12-13T04:22:27;98424.00;;;-0.86;71.89
40872;BME280;26591;43.264;26.940;2022-12-13T04:24:53;98431.53;;;-0.94;71.11
40872;BME280;26591;43.264;26.940;2022-12-13T04:27:18;98435.06;;;-1.08;71.93
40872;BME280;26591;43.264;26.940;2022-12-13T04:29:44;98426.34;;;-1.07;71.65
40872;BME280;26591;43.264;26.940;2022-12-13T04:32:09;98427.00;;;-1.29;72.66
40872;BME280;26591;43.264;26.940;2022-12-13T04:34:35;98427.94;;;-1.30;72.86
40872;BME280;26591;43.264;26.940;2022-12-13T04:37:00;98420.88;;;-1.28;72.22
40872;BME280;26591;43.264;26.940;2022-12-13T04:39:25;98422.56;;;-1.40;73.08
40872;BME280;26591;43.264;26.940;2022-12-13T04:41:51;98429.19;;;-1.23;72.56
40872;BME280;26591;43.264;26.940;2022-12-13T04:44:18;98404.50;;;-1.42;72.25
40872;BME280;26591;43.264;26.940;2022-12-13T04:46:44;98424.31;;;-1.41;71.42
40872;BME280;26591;43.264;26.940;2022-12-13T04:49:09;98421.94;;;-1.31;71.39
40872;BME280;26591;43.264;26.940;2022-12-13T04:51:35;98429.72;;;-1.31;71.31
40872;BME280;26591;43.264;26.940;2022-12-13T04:54:00;98443.50;;;-1.30;72.05
40872;BME280;26591;43.264;26.940;2022-12-13T04:56:26;98427.13;;;-1.18;72.07
40872;BME280;26591;43.264;26.940;2022-12-13T04:58:52;98435.56;;;-1.40;71.79
40872;BME280;26591;43.264;26.940;2022-12-13T05:01:17;98442.16;;;-1.23;72.01
40872;BME280;26591;43.264;26.940;2022-12-13T05:03:43;98438.66;;;-1.35;72.73
40872;BME280;26591;43.264;26.940;2022-12-13T05:06:10;98439.06;;;-1.28;71.85
40872;BME280;26591;43.264;26.940;2022-12-13T05:08:36;98451.00;;;-1.39;73.03
40872;BME280;26591;43.264;26.940;2022-12-13T05:11:05;98439.59;;;-1.49;72.73
40872;BME280;26591;43.264;26.940;2022-12-13T05:13:33;98445.94;;;-1.40;73.06
40872;BME280;26591;43.264;26.940;2022-12-13T05:16:02;98436.06;;;-1.61;72.32
40872;BME280;26591;43.264;26.940;2022-12-13T05:18:28;98424.97;;;-1.50;72.63
40872;BME280;26591;43.264;26.940;2022-12-13T05:20:53;98432.41;;;-1.58;73.14
40872;BME280;26591;43.264;26.940;2022-12-13T05:23:20;98433.69;;;-1.51;72.21
40872;BME280;26591;43.264;26.940;2022-12-13T05:25:46;98446.56;;;-1.62;72.46
40872;BME280;26591;43.264;26.940;2022-12-13T05:28:12;98453.06;;;-1.44;72.13
40872;BME280;26591;43.264;26.940;2022-12-13T05:30:39;98463.78;;;-1.35;71.78
40872;BME280;26591;43.264;26.940;2022-12-13T05:33:05;98472.28;;;-1.46;72.43
40872;BME280;26591;43.264;26.940;2022-12-13T05:35:30;98470.84;;;-1.63;71.91
40872;BME280;26591;43.264;26.940;2022-12-13T05:37:56;98490.56;;;-1.61;72.47
40872;BME280;26591;43.264;26.940;2022-12-13T05:40:22;98488.00;;;-1.48;71.79
40872;BME280;26591;43.264;26.940;2022-12-13T05:42:48;98499.50;;;-1.52;72.31
40872;BME280;26591;43.264;26.940;2022-12-13T05:45:19;98523.19;;;-1.31;72.24
40872;BME280;26591;43.264;26.940;2022-12-13T05:47:45;98532.63;;;-1.43;72.23
40872;BME280;26591;43.264;26.940;2022-12-13T05:50:12;98531.88;;;-1.45;71.40
40872;BME280;26591;43.264;26.940;2022-12-13T05:52:37;98542.81;;;-1.40;71.87
40872;BME280;26591;43.264;26.940;2022-12-13T05:55:04;98543.72;;;-1.41;71.09
40872;BME280;26591;43.264;26.940;2022-12-13T05:57:29;98535.41;;;-1.46;71.12
40872;BME280;26591;43.264;26.940;2022-12-13T05:59:55;98535.66;;;-1.23;70.92
40872;BME280;26591;43.264;26.940;2022-12-13T06:02:20;98552.88;;;-1.35;70.53
40872;BME280;26591;43.264;26.940;2022-12-13T06:04:46;98536.88;;;-1.42;70.90
40872;BME280;26591;43.264;26.940;2022-12-13T06:07:12;98533.97;;;-1.50;71.06
40872;BME280;26591;43.264;26.940;2022-12-13T06:09:38;98545.41;;;-1.40;71.42
40872;BME280;26591;43.264;26.940;2022-12-13T06:12:04;98559.66;;;-1.32;71.32
40872;BME280;26591;43.264;26.940;2022-12-13T06:14:29;98558.19;;;-1.36;69.99
40872;BME280;26591;43.264;26.940;2022-12-13T06:16:55;98552.22;;;-1.51;71.11
40872;BME280;26591;43.264;26.940;2022-12-13T06:19:21;98572.38;;;-1.55;71.17
40872;BME280;26591;43.264;26.940;2022-12-13T06:21:47;98562.53;;;-1.50;70.62
40872;BME280;26591;43.264;26.940;2022-12-13T06:24:18;98577.59;;;-1.42;71.18
40872;BME280;26591;43.264;26.940;2022-12-13T06:26:44;98581.75;;;-1.40;70.69
40872;BME280;26591;43.264;26.940;2022-12-13T06:29:09;98579.97;;;-1.52;70.86
40872;BME280;26591;43.264;26.940;2022-12-13T06:31:35;98573.28;;;-1.56;70.15
40872;BME280;26591;43.264;26.940;2022-12-13T06:34:02;98582.97;;;-1.45;70.38
40872;BME280;26591;43.264;26.940;2022-12-13T06:36:27;98588.91;;;-1.30;69.54
40872;BME280;26591;43.264;26.940;2022-12-13T06:38:53;98593.19;;;-1.16;69.34
40872;BME280;26591;43.264;26.940;2022-12-13T06:41:18;98593.19;;;-1.16;69.85
40872;BME280;26591;43.264;26.940;2022-12-13T06:43:45;98610.75;;;-1.07;68.57
40872;BME280;26591;43.264;26.940;2022-12-13T06:46:12;98591.72;;;-0.43;73.94
40872;BME280;26591;43.264;26.940;2022-12-13T06:48:38;98596.47;;;0.96;79.17
40872;BME280;26591;43.264;26.940;2022-12-13T06:51:07;98601.44;;;-0.21;67.15
40872;BME280;26591;43.264;26.940;2022-12-13T06:53:37;98589.56;;;-0.62;68.13
40872;BME280;26591;43.264;26.940;2022-12-13T06:56:07;98577.19;;;-0.97;69.39
40872;BME280;26591;43.264;26.940;2022-12-13T06:58:34;98588.63;;;-1.00;68.80
40872;BME280;26591;43.264;26.940;2022-12-13T07:01:07;98597.16;;;-0.85;69.06
40872;BME280;26591;43.264;26.940;2022-12-13T07:03:33;98583.84;;;-1.06;69.36
40872;BME280;26591;43.264;26.940;2022-12-13T07:06:02;98593.81;;;-1.13;68.87
40872;BME280;26591;43.264;26.940;2022-12-13T07:08:29;98591.34;;;-1.14;68.96
40872;BME280;26591;43.264;26.940;2022-12-13T07:10:56;98583.72;;;-1.43;69.55
40872;BME280;26591;43.264;26.940;2022-12-13T07:13:22;98583.44;;;-1.26;69.73
40872;BME280;26591;43.264;26.940;2022-12-13T07:15:48;98589.22;;;-1.35;69.77
40872;BME280;26591;43.264;26.940;2022-12-13T07:18:14;98597.44;;;-1.28;69.64
40872;BME280;26591;43.264;26.940;2022-12-13T07:20:41;98594.44;;;-1.22;69.45
40872;BME280;26591;43.264;26.940;2022-12-13T07:23:07;98595.19;;;-1.20;70.08
40872;BME280;26591;43.264;26.940;2022-12-13T07:25:33;98603.56;;;-1.29;69.31
40872;BME280;26591;43.264;26.940;2022-12-13T07:28:00;98602.63;;;-1.41;69.56
40872;BME280;26591;43.264;26.940;2022-12-13T07:30:26;98612.28;;;-1.30;70.49
40872;BME280;26591;43.264;26.940;2022-12-13T07:32:52;98621.16;;;-1.20;70.43
40872;BME280;26591;43.264;26.940;2022-12-13T07:35:17;98624.88;;;-1.24;68.82
40872;BME280;26591;43.264;26.940;2022-12-13T07:37:43;98650.09;;;-1.26;70.14
40872;BME280;26591;43.264;26.940;2022-12-13T07:40:11;98644.72;;;-1.23;69.97
40872;BME280;26591;43.264;26.940;2022-12-13T07:42:36;98641.91;;;-1.20;69.27
40872;BME280;26591;43.264;26.940;2022-12-13T07:45:02;98655.34;;;-1.00;69.35
40872;BME280;26591;43.264;26.940;2022-12-13T07:47:29;98655.56;;;-1.03;69.21
40872;BME280;26591;43.264;26.940;2022-12-13T07:49:55;98640.91;;;-0.92;68.18
40872;BME280;26591;43.264;26.940;2022-12-13T07:52:21;98668.78;;;-0.81;68.17
40872;BME280;26591;43.264;26.940;2022-12-13T07:54:46;98672.00;;;-0.77;68.65
40872;BME280;26591;43.264;26.940;2022-12-13T07:57:12;98668.22;;;-0.86;67.95
40872;BME280;26591;43.264;26.940;2022-12-13T07:59:37;98670.75;;;-0.71;68.31
40872;BME280;26591;43.264;26.940;2022-12-13T08:02:05;98680.50;;;-0.75;67.98
40872;BME280;26591;43.264;26.940;2022-12-13T08:04:31;98675.13;;;-0.59;68.09
40872;BME280;26591;43.264;26.940;2022-12-13T08:06:56;98676.06;;;-0.73;66.81
40872;BME280;26591;43.264;26.940;2022-12-13T08:09:22;98690.00;;;-0.61;67.70
40872;BME280;26591;43.264;26.940;2022-12-13T08:11:47;98691.00;;;-0.64;68.22
40872;BME280;26591;43.264;26.940;2022-12-13T08:14:13;98691.53;;;-0.71;68.01
40872;BME280;26591;43.264;26.940;2022-12-13T08:16:39;98705.28;;;-0.56;67.80
40872;BME280;26591;43.264;26.940;2022-12-13T08:19:04;98690.91;;;-0.36;67.58
40872;BME280;26591;43.264;26.940;2022-12-13T08:21:38;98689.03;;;-0.47;67.18
40872;BME280;26591;43.264;26.940;2022-12-13T08:24:04;98699.84;;;-0.27;66.76
40872;BME280;26591;43.264;26.940;2022-12-13T08:26:30;98697.66;;;-0.34;66.28
40872;BME280;26591;43.264;26.940;2022-12-13T08:28:55;98701.81;;;-0.05;66.77
40872;BME280;26591;43.264;26.940;2022-12-13T08:31:21;98712.81;;;-0.02;66.11
40872;BME280;26591;43.264;26.940;2022-12-13T08:33:46;98687.88;;;-0.04;66.51
40872;BME280;26591;43.264;26.940;2022-12-13T08:36:15;98700.81;;;0.09;65.87
40872;BME280;26591;43.264;26.940;2022-12-13T08:38:42;98702.41;;;-0.02;66.37
40872;BME280;26591;43.264;26.940;2022-12-13T08:41:08;98698.13;;;0.10;65.97
40872;BME280;26591;43.264;26.940;2022-12-13T08:43:34;98690.66;;;0.30;65.63
40872;BME280;26591;43.264;26.940;2022-12-13T08:46:00;98704.81;;;0.02;66.18
40872;BME280;26591;43.264;26.940;2022-12-13T08:48:26;98710.03;;;0.02;65.08
40872;BME280;26591;43.264;26.940;2022-12-13T08:50:51;98701.81;;;0.32;65.40
40872;BME280;26591;43.264;26.940;2022-12-13T08:53:17;98706.00;;;0.22;65.49
40872;BME280;26591;43.264;26.940;2022-12-13T08:55:42;98698.47;;;-0.07;65.72
40872;BME280;26591;43.264;26.940;2022-12-13T08:58:08;98717.72;;;0.03;65.18
40872;BME280;26591;43.264;26.940;2022-12-13T09:00:35;98699.88;;;0.23;65.10
40872;BME280;26591;43.264;26.940;2022-12-13T09:03:02;98697.91;;;0.51;64.79
40872;BME280;26591;43.264;26.940;2022-12-13T09:05:28;98685.22;;;0.46;64.17
40872;BME280;26591;43.264;26.940;2022-12-13T09:07:55;98696.19;;;0.63;63.51
40872;BME280;26591;43.264;26.940;2022-12-13T09:10:20;98695.06;;;0.54;63.99
40872;BME280;26591;43.264;26.940;2022-12-13T09:12:46;98695.72;;;0.69;63.33
40872;BME280;26591;43.264;26.940;2022-12-13T09:15:11;98690.81;;;0.53;63.91
40872;BME280;26591;43.264;26.940;2022-12-13T09:17:37;98702.97;;;0.76;63.05
40872;BME280;26591;43.264;26.940;2022-12-13T09:20:04;98696.44;;;0.95;63.19
40872;BME280;26591;43.264;26.940;2022-12-13T09:22:31;98693.13;;;1.04;63.30
40872;BME280;26591;43.264;26.940;2022-12-13T09:24:56;98699.81;;;1.20;62.38
40872;BME280;26591;43.264;26.940;2022-12-13T09:27:22;98691.03;;;1.10;61.50
40872;BME280;26591;43.264;26.940;2022-12-13T09:29:49;98698.88;;;1.21;62.45
40872;BME280;26591;43.264;26.940;2022-12-13T09:32:14;98717.66;;;1.49;61.79
40872;BME280;26591;43.264;26.940;2022-12-13T09:34:40;98707.13;;;1.62;60.97
40872;BME280;26591;43.264;26.940;2022-12-13T09:37:05;98700.59;;;1.67;61.08
40872;BME280;26591;43.264;26.940;2022-12-13T09:39:31;98689.47;;;1.54;61.76
40872;BME280;26591;43.264;26.940;2022-12-13T09:42:00;98711.63;;;1.71;61.81
40872;BME280;26591;43.264;26.940;2022-12-13T09:44:33;98690.19;;;1.90;60.25
40872;BME280;26591;43.264;26.940;2022-12-13T09:47:02;98688.63;;;1.76;60.59
40872;BME280;26591;43.264;26.940;2022-12-13T09:51:58;98666.59;;;1.80;60.40
40872;BME280;26591;43.264;26.940;2022-12-13T09:54:26;98660.78;;;1.88;59.90
40872;BME280;26591;43.264;26.940;2022-12-13T09:56:54;98668.34;;;1.80;59.22
40872;BME280;26591;43.264;26.940;2022-12-13T09:59:31;98665.88;;;1.78;59.28
40872;BME280;26591;43.264;26.940;2022-12-13T10:02:11;98669.28;;;1.79;59.30
40872;BME280;26591;43.264;26.940;2022-12-13T10:04:38;98665.25;;;1.52;58.71
40872;BME280;26591;43.264;26.940;2022-12-13T10:07:18;98667.88;;;1.86;58.86
40872;BME280;26591;43.264;26.940;2022-12-13T10:09:45;98658.41;;;1.85;57.81
40872;BME280;26591;43.264;26.940;2022-12-13T10:12:12;98675.34;;;2.02;57.46
40872;BME280;26591;43.264;26.940;2022-12-13T10:14:48;98693.03;;;1.76;57.24
40872;BME280;26591;43.264;26.940;2022-12-13T10:17:17;98689.44;;;2.11;57.39
40872;BME280;26591;43.264;26.940;2022-12-13T10:19:47;98691.78;;;2.37;56.01
40872;BME280;26591;43.264;26.940;2022-12-13T10:22:19;98672.81;;;2.35;56.34
40872;BME280;26591;43.264;26.940;2022-12-13T10:25:02;98671.28;;;2.65;56.10
40872;BME280;26591;43.264;26.940;2022-12-13T10:27:38;98685.66;;;2.92;55.71
40872;BME280;26591;43.264;26.940;2022-12-13T10:30:13;98682.84;;;3.26;55.74
40872;BME280;26591;43.264;26.940;2022-12-13T10:35:28;98677.53;;;3.27;54.38
40872;BME280;26591;43.264;26.940;2022-12-13T10:37:56;98686.72;;;3.22;54.77
40872;BME280;26591;43.264;26.940;2022-12-13T10:40:35;98670.47;;;3.80;54.05
40872;BME280;26591;43.264;26.940;2022-12-13T10:45:42;98676.75;;;3.99;52.92
40872;BME280;26591;43.264;26.940;2022-12-13T10:48:19;98663.13;;;4.15;53.29
40872;BME280;26591;43.264;26.940;2022-12-13T10:51:09;98648.19;;;3.55;53.28
40872;BME280;26591;43.264;26.940;2022-12-13T10:53:51;98643.69;;;3.66;53.01
40872;BME280;26591;43.264;26.940;2022-12-13T10:56:19;98637.38;;;3.38;52.15
40872;BME280;26591;43.264;26.940;2022-12-13T10:58:51;98635.78;;;3.26;53.32
40872;BME280;26591;43.264;26.940;2022-12-13T11:03:42;98640.38;;;3.12;53.28
40872;BME280;26591;43.264;26.940;2022-12-13T11:06:17;98642.59;;;3.17;54.27
40872;BME280;26591;43.264;26.940;2022-12-13T11:08:42;98638.03;;;3.30;53.74
40872;BME280;26591;43.264;26.940;2022-12-13T11:11:09;98652.47;;;3.56;53.05
40872;BME280;26591;43.264;26.940;2022-12-13T11:13:44;98658.84;;;3.63;52.48
40872;BME280;26591;43.264;26.940;2022-12-13T11:16:32;98649.31;;;3.93;52.67
40872;BME280;26591;43.264;26.940;2022-12-13T11:19:03;98651.56;;;4.07;51.46
40872;BME280;26591;43.264;26.940;2022-12-13T11:21:33;98646.19;;;3.37;52.34
40872;BME280;26591;43.264;26.940;2022-12-13T11:24:02;98659.25;;;3.68;51.47
40872;BME280;26591;43.264;26.940;2022-12-13T11:26:34;98647.13;;;3.57;50.44
40872;BME280;26591;43.264;26.940;2022-12-13T11:29:24;98654.47;;;3.73;51.24
40872;BME280;26591;43.264;26.940;2022-12-13T11:42:45;98651.59;;;4.17;49.88
40872;BME280;26591;43.264;26.940;2022-12-13T11:45:24;98654.88;;;4.19;49.76
40872;BME280;26591;43.264;26.940;2022-12-13T11:50:34;98627.47;;;3.73;49.00
40872;BME280;26591;43.264;26.940;2022-12-13T11:53:19;98648.13;;;2.93;50.41
40872;BME280;26591;43.264;26.940;2022-12-13T11:58:44;98628.06;;;2.17;52.68
40872;BME280;26591;43.264;26.940;2022-12-13T12:01:23;98635.09;;;2.16;52.60
40872;BME280;26591;43.264;26.940;2022-12-13T12:06:53;98639.00;;;2.54;52.88
40872;BME280;26591;43.264;26.940;2022-12-13T12:09:23;98634.72;;;2.53;52.76
40872;BME280;26591;43.264;26.940;2022-12-13T12:11:58;98633.44;;;2.48;52.92
40872;BME280;26591;43.264;26.940;2022-12-13T12:16:57;98632.22;;;2.63;58.49
40872;BME280;26591;43.264;26.940;2022-12-13T12:19:25;98633.31;;;3.03;53.74
40872;BME280;26591;43.264;26.940;2022-12-13T12:24:45;98634.41;;;3.22;51.82
40872;BME280;26591;43.264;26.940;2022-12-13T12:27:23;98637.91;;;3.11;51.99
40872;BME280;26591;43.264;26.940;2022-12-13T12:30:15;98637.59;;;3.04;51.62
40872;BME280;26591;43.264;26.940;2022-12-13T12:33:33;98632.94;;;3.08;51.91
40872;BME280;26591;43.264;26.940;2022-12-13T12:35:55;98651.75;;;3.54;51.81
40872;BME280;26591;43.264;26.940;2022-12-13T12:44:43;98646.41;;;3.55;50.96
40872;BME280;26591;43.264;26.940;2022-12-13T12:46:55;98652.38;;;4.08;56.64
40872;BME280;26591;43.264;26.940;2022-12-13T12:57:36;98659.88;;;3.50;49.64
40872;BME280;26591;43.264;26.940;2022-12-13T13:00:10;98661.81;;;3.48;49.52
40872;BME280;26591;43.264;26.940;2022-12-13T13:03:34;98671.66;;;3.66;49.08
40872;BME280;26591;43.264;26.940;2022-12-13T13:05:54;98662.38;;;3.83;49.02
40872;BME280;26591;43.264;26.940;2022-12-13T13:08:46;98667.94;;;3.69;49.55
40872;BME280;26591;43.264;26.940;2022-12-13T13:11:13;98670.00;;;3.65;49.09
40872;BME280;26591;43.264;26.940;2022-12-13T13:14:01;98674.81;;;3.39;48.94
40872;BME280;26591;43.264;26.940;2022-12-13T13:16:28;98670.59;;;2.63;50.31
40872;BME280;26591;43.264;26.940;2022-12-13T13:18:55;98675.81;;;2.63;50.27
40872;BME280;26591;43.264;26.940;2022-12-13T13:24:12;98683.56;;;2.53;51.20
40872;BME280;26591;43.264;26.940;2022-12-13T13:26:36;98695.81;;;2.41;51.77
40872;BME280;26591;43.264;26.940;2022-12-13T13:32:17;98694.66;;;2.11;52.15
40872;BME280;26591;43.264;26.940;2022-12-13T13:46:12;98699.28;;;2.19;52.74
40872;BME280;26591;43.264;26.940;2022-12-13T13:49:00;98712.25;;;2.20;52.87
40872;BME280;26591;43.264;26.940;2022-12-13T13:52:02;98703.16;;;2.47;52.81
40872;BME280;26591;43.264;26.940;2022-12-13T13:54:57;98715.69;;;2.09;54.30
40872;BME280;26591;43.264;26.940;2022-12-13T14:17:43;98762.19;;;2.38;54.33
40872;BME280;26591;43.264;26.940;2022-12-13T14:20:50;;;;2.35;
40872;BME280;26591;43.264;26.940;2022-12-13T14:29:37;98773.09;;;2.32;54.34
40872;BME280;26591;43.264;26.940;2022-12-13T14:32:29;98773.22;;;1.85;54.19
40872;BME280;26591;43.264;26.940;2022-12-13T14:34:56;98779.88;;;2.12;54.86
40872;BME280;26591;43.264;26.940;2022-12-13T14:37:27;98783.44;;;2.00;53.82
40872;BME280;26591;43.264;26.940;2022-12-13T14:39:59;98773.22;;;1.96;54.39
40872;BME280;26591;43.264;26.940;2022-12-13T14:42:31;98780.72;;;2.12;54.40
40872;BME280;26591;43.264;26.940;2022-12-13T14:45:24;98792.69;;;2.04;53.90
40872;BME280;26591;43.264;26.940;2022-12-13T14:47:56;98806.03;;;1.65;54.14
40872;BME280;26591;43.264;26.940;2022-12-13T14:50:24;98809.94;;;1.59;54.49
40872;BME280;26591;43.264;26.940;2022-12-13T14:52:51;98816.63;;;1.86;54.84
40872;BME280;26591;43.264;26.940;2022-12-13T14:55:31;98823.53;;;1.87;54.44
40872;BME280;26591;43.264;26.940;2022-12-13T14:57:58;98828.72;;;1.76;54.63
40872;BME280;26591;43.264;26.940;2022-12-13T15:00:31;98831.44;;;1.86;54.45
40872;BME280;26591;43.264;26.940;2022-12-13T15:02:59;98838.47;;;2.08;55.30
40872;BME280;26591;43.264;26.940;2022-12-13T15:07:50;98839.91;;;1.89;54.83
40872;BME280;26591;43.264;26.940;2022-12-13T15:10:24;98849.28;;;1.92;54.92
40872;BME280;26591;43.264;26.940;2022-12-13T15:12:53;98848.09;;;1.96;54.44
40872;BME280;26591;43.264;26.940;2022-12-13T15:15:30;98856.94;;;1.71;55.10
40872;BME280;26591;43.264;26.940;2022-12-13T15:18:23;98867.97;;;1.86;55.48